Weather observations for the past three days for
Grant County Airport
Metric (Imperial)
Date Time (pdt) Wind (kph) Vis. (km) Weather Sky Cond. Temperature (ºC) Relative Humidity Wind Chill (°C) Heat Index (°C) Pressure Precipitation (cm)
Air Dwpt 6 hour altimeter (cm) sea level (mb) 1 hr 3 hr 6 hr
Max. Min.
31 09:52 Vrbl 6 16.09 Fair CLR 18.3 5.6 43% 76.17 1015.2
31 08:52 N 9 16.09 Fair CLR 15 5.6 54% 76.2 1015.6
31 07:52 N 6 16.09 Fair CLR 11.1 5.6 69% 76.2 1015.8
31 06:52 N 9 16.09 Fair CLR 8.9 5 77% 8 76.15 1015.3
31 05:52 N 13 16.09 Fair CLR 7.8 5 83% 6 76.15 1015.0
31 04:52 N 11 16.09 Fair CLR 8.9 5 13.9 8.3 77% 7 76.15 1014.9
31 03:52 N 9 16.09 Fair CLR 8.3 5.6 83% 7 76.15 1015.0
31 02:52 N 7 16.09 Fair CLR 9.4 6.1 80% 9 76.15 1015.1
31 01:52 NE 11 16.09 Fair CLR 10 7.2 83% 9 76.17 1015.3
31 00:52 Calm 16.09 Fair CLR 11.1 6.7 75% 76.17 1015.3
30 23:52 N 7 16.09 Fair CLR 11.7 7.2 74% 76.17 1015.2
30 22:52 N 7 16.09 Fair CLR 13.9 7.8 23.9 13.9 67% 76.17 1015.3
30 21:52 Calm 16.09 Fair CLR 17.2 7.2 52% 76.17 1015.2
30 20:52 SE 7 16.09 Fair CLR 17.2 7.2 52% 76.15 1015.1
30 19:52 E 11 16.09 Fair CLR 19.4 7.2 45% 76.15 1015.0
30 18:52 SE 15 16.09 Fair CLR 21.7 6.7 38% 76.15 1015.0
30 17:52 SE 17 16.09 Fair CLR 22.8 5.6 33% 76.15 1015.0
30 16:52 S 19 16.09 Fair CLR 23.3 5 23.9 18.3 31% 76.15 1015.1
30 14:52 Vrbl 9 G 30 16.09 Fair CLR 22.8 5 32% 76.23 1016.0
30 13:52 SW 24 16.09 Fair CLR 22.2 3.9 30% 76.28 1016.7
30 12:52 SW 24 16.09 Fair CLR 21.7 5 34% 76.28 1016.7
30 11:52 Calm 16.09 Fair CLR 20 6.1 40% 76.33 1017.3
30 10:52 SW 11 16.09 Fair CLR 18.3 6.1 18.9 6.7 45% 76.33 1017.4
30 09:52 S 7 16.09 Fair CLR 16.7 6.7 52% 76.33 1017.4
30 08:52 S 9 16.09 Fair CLR 14.4 7.8 65% 76.33 1017.5
30 07:52 Calm 16.09 Fair CLR 10.6 7.8 83% 76.33 1017.6
30 06:52 SE 6 16.09 Fair CLR 7.8 5.6 86% 76.3 1017.2
30 05:52 SE 7 16.09 Fair CLR 6.7 5 89% 6 76.28 1016.9
30 04:52 S 6 16.09 Fair CLR 8.9 5.6 14.4 8.3 80% 76.25 1016.5
30 03:52 SW 11 16.09 Fair CLR 12.2 5.6 64% 76.23 1016.3
30 02:52 W 11 16.09 Fair CLR 11.7 5 64% 76.23 1016.3
30 01:52 SW 9 16.09 Fair CLR 12.8 5.6 62% 76.2 1016.0
30 00:52 W 13 16.09 Fair CLR 12.8 5 59% 76.2 1015.7
29 23:52 W 13 16.09 Fair CLR 13.9 5.6 58% 76.2 1015.5
29 22:52 S 6 16.09 Fair CLR 13.9 5.6 18.9 13.3 58% 76.23 1015.8
29 21:52 W 7 16.09 Fair CLR 13.9 6.1 60% 76.2 1015.8
29 20:52 NW 17 16.09 Fair CLR 14.4 6.1 58% 76.17 1015.5
29 19:52 NW 9 16.09 Fair CLR 15 10 72% 76.12 1014.8
29 18:52 NE 9 16.09 Fair CLR 18.3 8.9 54% 76.1 1014.3
29 17:52 NE 15 16.09 A Few Clouds FEW070 FEW110 18.3 10.6 61% 76.07 1013.9
29 16:52 NE 15 16.09 Mostly Cloudy BKN070 BKN080 18.3 10.6 23.9 15 61% 76.07 1014.0 0.18
29 15:52 NE 13 16.09 Overcast FEW070 BKN080 OVC095 17.8 10 60% 76.05 1013.7
29 14:52 NE 20 14.48 Light Rain FEW055 BKN080 OVC095 16.1 12.2 78% 76.02 1013.5 0.1
29 13:52 NE 24 8.05 Light Rain FEW029 BKN065 BKN100 16.1 10.6 70% 76 1013.1 0.08 0.08
29 12:52 N 24 G 35 9.66 Mostly Cloudy with Haze BKN060 BKN080 20.6 6.1 39% 75.95 1012.1
29 11:52 W 22 G 35 16.09 Fair CLR 22.2 5 33% 75.87 1010.9
29 10:52 SW 22 16.09 A Few Clouds FEW075 21.1 5.6 21.7 11.1 37% 75.87 1010.9
29 09:52 SW 22 16.09 Fair CLR 19.4 6.7 44% 75.84 1010.6
29 08:52 S 26 16.09 Fair CLR 17.2 6.7 50% 75.84 1010.6
29 07:52 SW 22 16.09 Fair CLR 15.6 7.8 60% 75.82 1010.4
29 06:52 SW 20 16.09 Fair CLR 13.9 8.3 69% 75.82 1010.1
29 05:52 SE 11 16.09 Fair CLR 13.3 7.2 67% 75.77 1009.8
29 04:52 SW 15 16.09 Fair CLR 14.4 7.8 20 12.2 65% 75.77 1009.7
29 03:52 Calm 16.09 Fair CLR 15 8.3 64% 75.79 1009.7
29 02:52 SW 9 16.09 Fair CLR 16.1 9.4 65% 75.77 1009.6
29 01:52 W 9 16.09 Fair CLR 17.2 5.6 47% 75.77 1009.4
29 00:52 NW 6 16.09 Fair CLR 16.1 7.8 58% 75.77 1009.5
28 23:52 SE 6 16.09 Fair CLR 18.3 8.9 54% 75.77 1009.5
28 22:52 SW 19 16.09 Fair CLR 20 8.9 27.2 20 49% 75.77 1009.5
28 21:52 S 9 16.09 Fair CLR 21.1 9.4 47% 75.77 1009.8
28 20:52 SE 11 16.09 Fair CLR 20.6 9.4 49% 75.77 1009.7
28 19:52 S 13 16.09 Fair CLR 23.3 7.8 37% 75.74 1009.5
28 18:52 SE 13 16.09 Fair CLR 25.6 7.2 31% 26 75.77 1009.8
28 17:52 Vrbl 11 16.09 Fair CLR 26.7 5.6 26% 26 75.79 1010.2
28 16:52 S 9 16.09 Fair CLR 27.2 5.6 27.2 22.8 25% 26 75.84 1010.7
28 15:52 S 9 16.09 Fair CLR 26.7 7.2 29% 26 75.9 1011.2
28 14:52 S 13 16.09 Fair CLR 26.7 7.8 30% 26 75.95 1012.0
28 13:52 Calm 16.09 Fair CLR 25.6 7.8 32% 26 76.02 1012.8
28 12:52 Vrbl 7 16.09 Fair CLR 23.9 8.3 37% 25 76.07 1013.6
28 11:52 Calm 16.09 Fair CLR 23.3 7.2 36% 76.1 1014.1
28 10:52 Calm 11.27 Fair CLR 22.2 7.2 22.2 10.6 38% 76.15 1014.5
Date Time (pdt) Wind (kph) Vis. (km) Weather Sky Cond. Air Dwpt Max. Min. Relative Humidity Wind Chill (°C) Heat Index (°C) altimeter (cm) sea level (mb) 1 hr 3 hr 6 hr
6 hour
Temperature (ºC) Pressure Precipitation (cm)